Time;durP1;ratioP1;P1;durP2;ratioP2;P2;SDS_P1;SDS_P2;PMS_P1;PMS_P2;Temp;Humidity;BMP_temperature;BMP_pressure;BME280_temperature;BME280_humidity;BME280_pressure;Samples;Min_cycle;Max_cycle;Signal;HPM_P1;HPM_P2
2021/08/12 00:04:29;;;;;;;13.17;7.30;;;17.50;99.90;;;;;;20731636;28;20439;-72
2021/08/12 00:14:30;;;;;;;16.48;7.45;;;17.10;99.90;;;;;;20748677;28;20101;-72
2021/08/12 00:24:31;;;;;;;12.70;7.50;;;16.80;99.90;;;;;;20747567;28;20087;-72
2021/08/12 00:34:32;;;;;;;14.07;6.97;;;16.80;99.90;;;;;;20746704;28;20189;-74
2021/08/12 00:44:34;;;;;;;9.93;7.00;;;16.80;99.90;;;;;;20745022;28;20037;-73
2021/08/12 00:54:36;;;;;;;13.53;7.00;;;17.00;99.90;;;;;;20744534;28;20463;-75
2021/08/12 01:04:38;;;;;;;10.23;7.15;;;16.60;99.90;;;;;;20743418;28;20034;-75
2021/08/12 01:14:57;;;;;;;10.63;7.38;;;16.50;99.90;;;;;;20743108;28;20039;-73
2021/08/12 01:25:05;;;;;;;14.50;7.68;;;16.60;99.90;;;;;;20742615;28;20034;-75
2021/08/12 01:35:12;;;;;;;16.38;7.80;;;16.10;99.90;;;;;;20743073;28;20038;-73
2021/08/12 01:45:15;;;;;;;9.52;7.22;;;16.00;99.90;;;;;;20743789;28;20030;-75
2021/08/12 01:55:20;;;;;;;12.38;7.47;;;16.10;99.90;;;;;;20743291;28;20033;-75
2021/08/12 02:05:23;;;;;;;16.58;8.00;;;16.10;99.90;;;;;;20741517;28;20038;-75
2021/08/12 02:15:24;;;;;;;;;;;15.80;99.90;;;;;;20759656;28;20444;-75
2021/08/12 02:25:57;;;;;;;14.43;7.45;;;15.80;99.90;;;;;;20756232;28;20417;-73
2021/08/12 02:35:59;;;;;;;10.37;7.30;;;15.80;99.90;;;;;;20735235;28;20037;-75
2021/08/12 02:46:02;;;;;;;14.90;6.97;;;15.50;99.90;;;;;;20815039;28;20026;-75
2021/08/12 02:56:06;;;;;;;11.85;7.43;;;15.50;99.90;;;;;;20737621;28;20515;-74
2021/08/12 03:06:12;;;;;;;13.35;7.90;;;15.40;99.90;;;;;;20755566;28;20515;-75
2021/08/12 03:16:13;;;;;;;15.68;7.95;;;15.10;99.90;;;;;;20748561;28;20041;-74
2021/08/12 03:26:15;;;;;;;11.20;7.82;;;15.30;99.90;;;;;;20822875;28;20160;-74
2021/08/12 03:36:16;;;;;;;20.65;8.07;;;15.40;99.90;;;;;;20734368;28;20050;-75
2021/08/12 03:46:17;;;;;;;16.47;8.23;;;15.20;99.90;;;;;;20736857;28;20038;-74
2021/08/12 03:56:18;;;;;;;12.33;7.87;;;15.10;99.90;;;;;;20736338;28;20496;-75
2021/08/12 04:06:21;;;;;;;12.60;8.07;;;15.20;99.90;;;;;;20731342;28;20527;-76
2021/08/12 04:16:22;;;;;;;11.40;6.73;;;15.80;99.90;;;;;;20731342;28;20030;-76
2021/08/12 04:26:27;;;;;;;14.73;8.13;;;16.20;99.90;;;;;;20730349;28;20061;-75
2021/08/12 04:36:28;;;;;;;13.68;7.43;;;16.30;99.90;;;;;;20729519;28;20463;-74
2021/08/12 04:46:29;;;;;;;12.10;7.47;;;16.30;99.90;;;;;;20736341;28;20029;-72
2021/08/12 04:56:30;;;;;;;10.63;6.63;;;16.50;99.90;;;;;;20746109;28;20273;-74
2021/08/12 05:06:33;;;;;;;13.43;7.23;;;16.60;99.90;;;;;;20727425;28;20030;-74
2021/08/12 05:16:34;;;;;;;14.65;9.05;;;16.70;99.90;;;;;;20725800;28;20044;-74
2021/08/12 05:26:35;;;;;;;16.40;9.33;;;16.70;99.90;;;;;;20725808;28;20124;-74
2021/08/12 05:36:36;;;;;;;15.93;9.55;;;16.80;99.90;;;;;;20725356;28;20100;-74
2021/08/12 05:46:37;;;;;;;13.73;9.47;;;16.90;99.90;;;;;;20725724;28;20030;-75
2021/08/12 05:56:38;;;;;;;15.60;9.17;;;17.30;99.90;;;;;;20743764;28;20071;-73
2021/08/12 06:06:39;;;;;;;17.27;9.03;;;17.60;99.90;;;;;;20725604;28;20029;-74
2021/08/12 06:16:41;;;;;;;14.93;8.85;;;18.00;99.90;;;;;;20724634;28;20033;-74
2021/08/12 06:26:44;;;;;;;14.10;8.87;;;18.60;99.90;;;;;;20724153;28;20057;-74
2021/08/12 06:36:46;;;;;;;12.27;8.27;;;18.90;99.90;;;;;;20733651;28;20033;-74
2021/08/12 06:46:47;;;;;;;18.93;8.50;;;19.20;99.90;;;;;;20749885;28;20040;-74
2021/08/12 06:56:51;;;;;;;14.18;8.35;;;19.50;99.90;;;;;;20742503;28;20033;-74
2021/08/12 07:06:52;;;;;;;12.73;7.97;;;20.10;99.90;;;;;;20738610;28;20112;-74
2021/08/12 07:16:53;;;;;;;13.47;8.17;;;20.10;99.90;;;;;;20739609;28;20025;-75
2021/08/12 07:26:54;;;;;;;11.20;7.73;;;20.90;99.90;;;;;;20739843;28;20052;-75
2021/08/12 07:36:55;;;;;;;13.73;7.80;;;21.50;99.90;;;;;;20737458;28;20034;-73
2021/08/12 07:46:56;;;;;;;12.03;7.63;;;22.30;99.90;;;;;;20733538;28;20722;-73
2021/08/12 07:56:57;;;;;;;9.30;6.53;;;22.20;99.90;;;;;;20750093;28;20061;-73
2021/08/12 08:06:59;;;;;;;8.87;6.27;;;22.90;99.90;;;;;;20750958;28;20408;-73
2021/08/12 08:17:00;;;;;;;16.55;6.65;;;23.40;99.90;;;;;;20748702;28;20037;-73
2021/08/12 08:27:01;;;;;;;12.83;7.10;;;23.90;99.90;;;;;;20752009;28;20036;-73
2021/08/12 08:37:02;;;;;;;12.35;7.75;;;23.30;99.90;;;;;;20747017;28;20033;-73
2021/08/12 08:47:07;;;;;;;13.10;7.45;;;23.00;99.90;;;;;;20746440;28;20032;-74
2021/08/12 08:57:09;;;;;;;12.55;7.75;;;24.70;99.90;;;;;;20728115;28;20069;-74
2021/08/12 09:07:10;;;;;;;16.55;7.63;;;26.00;99.90;;;;;;20727142;28;20038;-74
2021/08/12 09:17:21;;;;;;;13.50;8.98;;;26.80;99.90;;;;;;20744493;28;20030;-74
2021/08/12 09:27:23;;;;;;;11.70;8.68;;;26.50;99.90;;;;;;20744112;28;20036;-74
2021/08/12 09:37:31;;;;;;;10.85;8.48;;;27.00;99.90;;;;;;20743376;28;20125;-74
2021/08/12 09:47:32;;;;;;;10.63;7.22;;;28.20;99.90;;;;;;20743000;28;20037;-74
2021/08/12 09:57:47;;;;;;;13.93;8.00;;;28.60;99.90;;;;;;20725160;28;20559;-74
2021/08/12 10:07:50;;;;;;;10.95;8.25;;;29.00;99.90;;;;;;20729699;28;20061;-75
2021/08/12 10:17:54;;;;;;;11.98;7.85;;;29.70;99.90;;;;;;20746698;28;20109;-75
2021/08/12 10:28:02;;;;;;;12.35;7.65;;;29.80;99.90;;;;;;20757722;28;20459;-74
2021/08/12 10:38:04;;;;;;;13.30;7.32;;;29.60;99.90;;;;;;20756587;28;20424;-74
2021/08/12 10:48:07;;;;;;;12.48;6.63;;;30.50;99.90;;;;;;20756250;28;20386;-75
2021/08/12 10:58:23;;;;;;;12.93;7.05;;;31.90;99.90;;;;;;20755674;28;20038;-75
2021/08/12 11:08:50;;;;;;;10.45;6.80;;;31.10;99.90;;;;;;20741865;28;20084;-76
2021/08/12 11:18:58;;;;;;;10.23;6.95;;;32.10;99.90;;;;;;20746597;28;20531;-75
2021/08/12 11:28:59;;;;;;;11.32;6.40;;;32.50;99.90;;;;;;20752758;28;20045;-75
2021/08/12 11:39:08;;;;;;;11.88;5.90;;;31.50;99.90;;;;;;20734130;28;20598;-75
2021/08/12 11:49:14;;;;;;;11.70;5.88;;;32.50;99.90;;;;;;20751719;28;20051;-74
2021/08/12 11:59:26;;;;;;;8.63;6.28;;;33.10;99.90;;;;;;20751237;28;20037;-75
2021/08/12 12:09:29;;;;;;;7.40;5.18;;;32.70;99.90;;;;;;20749860;28;20117;-76
2021/08/12 12:19:30;;;;;;;7.82;5.72;;;32.70;99.90;;;;;;20748771;28;20037;-76
2021/08/12 12:29:31;;;;;;;12.90;5.40;;;33.70;99.90;;;;;;20748718;28;20515;-75
2021/08/12 12:39:32;;;;;;;6.65;5.03;;;33.30;99.90;;;;;;20746640;28;20774;-75
2021/08/12 12:49:33;;;;;;;9.88;5.50;;;33.10;99.90;;;;;;20730120;28;20040;-75
2021/08/12 12:59:34;;;;;;;8.57;4.78;;;33.50;99.90;;;;;;20728959;28;20516;-76
2021/08/12 13:09:37;;;;;;;10.60;5.03;;;34.00;99.90;;;;;;20745110;28;20038;-75
2021/08/12 13:19:38;;;;;;;7.05;4.70;;;32.90;99.90;;;;;;20744701;28;20029;-75
2021/08/12 13:29:40;;;;;;;8.63;4.97;;;32.90;99.90;;;;;;20742954;28;20068;-75
2021/08/12 13:39:40;;;;;;;7.72;4.30;;;33.40;99.90;;;;;;20817568;23;20056;-76
2021/08/12 13:49:41;;;;;;;11.57;4.63;;;33.80;99.90;;;;;;20803016;28;20029;-76
2021/08/12 13:59:42;;;;;;;9.73;4.37;;;33.70;99.90;;;;;;20818161;28;20021;-76
2021/08/12 14:09:43;;;;;;;5.60;3.83;;;33.90;99.90;;;;;;20818766;28;20346;-75
2021/08/12 14:19:44;;;;;;;9.93;4.97;;;33.90;99.90;;;;;;20815289;28;20414;-75
2021/08/12 14:29:44;;;;;;;9.50;4.97;;;34.30;99.90;;;;;;20817401;28;20292;-75
2021/08/12 14:39:49;;;;;;;9.00;4.67;;;34.00;99.90;;;;;;20817801;28;20698;-76
2021/08/12 14:49:50;;;;;;;9.93;4.47;;;34.50;99.90;;;;;;20818482;28;20386;-77
2021/08/12 14:59:50;;;;;;;8.17;4.80;;;34.60;99.90;;;;;;20816369;28;20018;-77
2021/08/12 15:09:51;;;;;;;11.10;4.70;;;33.60;99.90;;;;;;20821874;28;20310;-79
2021/08/12 15:19:53;;;;;;;6.55;4.72;;;34.00;99.90;;;;;;20814040;28;20037;-77
2021/08/12 15:29:54;;;;;;;8.17;5.03;;;33.30;99.90;;;;;;20813228;28;20092;-77
2021/08/12 15:39:55;;;;;;;12.82;4.68;;;33.80;99.90;;;;;;20794679;28;20300;-77
2021/08/12 15:49:55;;;;;;;6.78;4.90;;;33.50;99.90;;;;;;20812286;28;20035;-77
2021/08/12 15:59:56;;;;;;;7.43;4.90;;;33.30;99.90;;;;;;20811653;28;20025;-77
2021/08/12 16:09:57;;;;;;;7.77;4.83;;;32.70;99.90;;;;;;20810823;28;20365;-77
2021/08/12 16:19:58;;;;;;;8.98;5.95;;;32.40;99.90;;;;;;20809587;28;20030;-77
2021/08/12 16:29:59;;;;;;;8.95;5.03;;;31.70;99.90;;;;;;20807798;28;20025;-77
2021/08/12 16:40:00;;;;;;;16.48;6.00;;;31.80;99.90;;;;;;20803075;28;20049;-78
2021/08/12 16:50:01;;;;;;;7.45;5.45;;;31.00;99.90;;;;;;20806844;28;20041;-77
2021/08/12 17:00:04;;;;;;;7.22;5.13;;;30.80;99.90;;;;;;20807391;28;20447;-76
2021/08/12 17:10:07;;;;;;;8.55;4.38;;;30.50;99.90;;;;;;20806825;28;20411;-77
2021/08/12 17:20:08;;;;;;;10.63;5.22;;;30.30;99.90;;;;;;20806297;28;20535;-77
2021/08/12 17:30:09;;;;;;;6.72;4.75;;;29.70;99.90;;;;;;20805011;28;20117;-77
2021/08/12 17:40:11;;;;;;;20.17;4.82;;;28.70;99.90;;;;;;20817765;28;20684;-77
2021/08/12 17:50:14;;;;;;;12.93;4.38;;;28.20;99.90;;;;;;20805152;28;20029;-77
2021/08/12 18:00:15;;;;;;;6.95;4.30;;;27.90;99.90;;;;;;20806220;28;20523;-77
2021/08/12 18:10:16;;;;;;;11.93;5.03;;;27.10;99.90;;;;;;20804216;28;20068;-77
2021/08/12 18:20:17;;;;;;;6.75;4.25;;;26.80;99.90;;;;;;20803593;28;20109;-76
2021/08/12 18:30:19;;;;;;;14.13;4.82;;;25.90;99.90;;;;;;20788566;28;20030;-78
2021/08/12 18:40:19;;;;;;;13.18;4.68;;;25.60;99.90;;;;;;20773090;28;20128;-77
2021/08/12 18:50:20;;;;;;;8.50;4.75;;;25.40;99.90;;;;;;20799887;28;20041;-76
2021/08/12 19:00:21;;;;;;;;;;;24.80;99.90;;;;;;20816858;28;20072;-76
2021/08/12 19:10:22;;;;;;;6.57;4.07;;;24.30;99.90;;;;;;20816676;28;20664;-78
2021/08/12 19:20:23;;;;;;;7.25;4.75;;;23.80;99.90;;;;;;20829518;28;20033;-79
2021/08/12 19:30:23;;;;;;;11.88;4.82;;;23.80;99.90;;;;;;20784050;28;20046;-77
2021/08/12 19:40:25;;;;;;;;;;;23.70;99.90;;;;;;20820991;28;20124;-79
2021/08/12 19:50:26;;;;;;;8.60;5.07;;;23.30;99.90;;;;;;20803642;28;19917;-78
2021/08/12 20:00:30;;;;;;;8.00;5.18;;;23.10;99.90;;;;;;20818288;28;20739;-78
2021/08/12 20:10:30;;;;;;;9.35;4.68;;;22.60;99.90;;;;;;20819275;28;20968;-78
2021/08/12 20:20:34;;;;;;;9.02;5.22;;;21.80;99.90;;;;;;20816311;28;20079;-78
2021/08/12 20:30:35;;;;;;;6.75;4.50;;;22.20;99.90;;;;;;20814884;28;20492;-78
2021/08/12 20:40:36;;;;;;;11.20;5.23;;;22.40;99.90;;;;;;20821557;28;20055;-79
2021/08/12 20:50:38;;;;;;;8.18;5.00;;;22.40;99.90;;;;;;20827704;28;20034;-78
2021/08/12 21:00:38;;;;;;;12.15;4.88;;;21.60;99.90;;;;;;20812728;28;20041;-78
2021/08/12 21:10:41;;;;;;;9.93;5.60;;;21.80;99.90;;;;;;20817530;28;20399;-78
2021/08/12 21:20:43;;;;;;;7.97;5.70;;;22.20;99.90;;;;;;20846139;28;20039;-78
2021/08/12 21:30:44;;;;;;;12.75;7.35;;;22.20;99.90;;;;;;20855137;28;20035;-78
2021/08/12 21:40:45;;;;;;;14.60;7.38;;;22.30;99.90;;;;;;20837437;28;20040;-79
2021/08/12 21:50:46;;;;;;;;;;;22.40;99.90;;;;;;20839270;28;20056;-79
2021/08/12 22:00:47;;;;;;;18.93;8.33;;;22.40;99.90;;;;;;20820453;28;19909;-79
2021/08/12 22:10:48;;;;;;;11.00;7.47;;;22.30;99.90;;;;;;20836718;28;20025;-79
2021/08/12 22:20:49;;;;;;;9.20;7.27;;;21.30;99.90;;;;;;20853005;28;20083;-78
2021/08/12 22:30:50;;;;;;;15.60;8.60;;;21.50;99.90;;;;;;20848492;28;20030;-78
2021/08/12 22:40:51;;;;;;;16.55;7.72;;;21.70;99.90;;;;;;20844281;28;20034;-78
2021/08/12 22:50:54;;;;;;;;;;;21.20;99.90;;;;;;20842604;28;20052;-78
2021/08/12 23:00:55;;;;;;;15.20;8.13;;;21.00;99.90;;;;;;20841577;28;19963;-78
2021/08/12 23:10:56;;;;;;;10.90;7.43;;;21.70;99.90;;;;;;20843007;28;20431;-78
2021/08/12 23:20:56;;;;;;;11.73;7.30;;;21.50;99.90;;;;;;20841310;28;20059;-78
2021/08/12 23:30:57;;;;;;;16.07;6.83;;;21.60;99.90;;;;;;20840001;28;20063;-78
2021/08/12 23:40:58;;;;;;;12.03;7.13;;;21.70;99.90;;;;;;20841569;28;20025;-78
2021/08/12 23:51:01;;;;;;;20.17;7.70;;;20.90;99.90;;;;;;20822346;28;20033;-78
